Time;durP1;ratioP1;P1;durP2;ratioP2;P2;SDS_P1;SDS_P2;PMS_P1;PMS_P2;Temp;Humidity;BMP_temperature;BMP_pressure;BME280_temperature;BME280_humidity;BME280_pressure;Samples;Min_cycle;Max_cycle;Signal;HPM_P1;HPM_P2
2023/11/24 00:02:07;;;;;;;0.60;0.60;;;;;;;9.71;71.38;99451.91;10517467;28;20511;-66
2023/11/24 00:07:10;;;;;;;1.00;0.90;;;;;;;9.73;71.36;99444.81;10518810;28;20166;-66
2023/11/24 00:12:12;;;;;;;0.63;0.50;;;;;;;9.70;71.47;99439.78;10516351;28;20048;-66
2023/11/24 00:17:14;;;;;;;0.77;0.70;;;;;;;9.88;70.63;99425.53;10499880;28;20056;-66
2023/11/24 00:22:15;;;;;;;0.70;0.65;;;;;;;9.78;70.85;99438.34;10517840;28;20048;-66
2023/11/24 00:27:20;;;;;;;1.08;0.63;;;;;;;9.82;70.69;99418.09;10517465;28;20430;-66
2023/11/24 00:32:24;;;;;;;1.65;1.10;;;;;;;9.90;70.44;99408.84;10515818;28;20067;-66
2023/11/24 00:37:26;;;;;;;1.02;0.80;;;;;;;10.06;69.94;99412.13;10498466;28;20044;-66
2023/11/24 00:42:29;;;;;;;1.10;0.80;;;;;;;10.13;69.75;99382.03;10498728;28;20567;-66
2023/11/24 00:47:31;;;;;;;0.60;0.60;;;;;;;10.11;69.62;99380.47;10516755;28;20416;-66
2023/11/24 00:52:33;;;;;;;1.25;0.85;;;;;;;10.15;69.26;99380.16;10515618;28;20040;-65
2023/11/24 00:57:36;;;;;;;1.55;1.10;;;;;;;9.89;70.50;99461.19;10516719;28;20040;-66
2023/11/24 01:02:38;;;;;;;2.85;0.85;;;;;;;9.61;71.01;99467.25;10514706;28;20135;-65
2023/11/24 01:07:40;;;;;;;1.98;1.20;;;;;;;9.43;69.58;99458.81;10516871;28;20475;-66
2023/11/24 01:12:43;;;;;;;2.65;1.15;;;;;;;9.55;68.93;99467.66;10513107;28;20686;-65
2023/11/24 01:17:45;;;;;;;1.23;0.98;;;;;;;9.51;68.97;99487.91;10515306;28;20062;-66
2023/11/24 01:22:48;;;;;;;3.15;0.95;;;;;;;9.27;68.61;99493.78;10515696;28;20052;-65
2023/11/24 01:27:50;;;;;;;3.63;2.00;;;;;;;9.17;67.51;99498.75;10497817;28;20715;-66
2023/11/24 01:32:53;;;;;;;2.03;0.77;;;;;;;9.13;67.81;99512.91;10514582;28;20343;-65
2023/11/24 01:37:55;;;;;;;5.68;1.52;;;;;;;9.11;67.61;99527.81;10514013;28;20474;-65
2023/11/24 01:42:57;;;;;;;5.00;1.33;;;;;;;8.85;67.38;99536.34;10497423;28;20064;-65
2023/11/24 01:47:59;;;;;;;4.35;1.75;;;;;;;8.63;65.75;99543.72;10515055;28;20052;-65
2023/11/24 01:53:01;;;;;;;4.72;1.10;;;;;;;8.50;66.20;99545.38;10509218;28;20051;-66
2023/11/24 01:58:05;;;;;;;4.80;1.23;;;;;;;8.51;66.03;99540.06;10494604;28;20131;-65
2023/11/24 02:03:07;;;;;;;6.97;1.98;;;;;;;8.42;65.97;99524.13;10502488;28;20131;-66
2023/11/24 02:08:10;;;;;;;5.03;1.60;;;;;;;8.44;65.62;99524.88;10503181;28;20059;-66
2023/11/24 02:13:12;;;;;;;5.57;2.08;;;;;;;8.40;65.80;99520.78;10505056;28;20048;-65
2023/11/24 02:18:13;;;;;;;8.07;1.40;;;;;;;8.41;65.89;99512.00;10503208;28;20063;-65
2023/11/24 02:23:16;;;;;;;7.45;1.80;;;;;;;8.36;66.18;99516.66;10504391;28;20578;-66
2023/11/24 02:28:18;;;;;;;3.20;1.38;;;;;;;8.38;66.36;99518.25;10522115;28;20075;-66
2023/11/24 02:33:20;;;;;;;4.95;1.75;;;;;;;8.39;66.32;99525.13;10503759;28;20135;-65
2023/11/24 02:38:22;;;;;;;9.30;2.05;;;;;;;8.38;66.19;99526.06;10503080;28;20044;-65
2023/11/24 02:43:24;;;;;;;7.30;2.08;;;;;;;8.39;66.20;99535.56;10522012;28;20097;-65
2023/11/24 02:48:26;;;;;;;8.15;2.67;;;;;;;8.44;66.30;99538.75;10521948;28;20139;-65
2023/11/24 02:53:29;;;;;;;3.42;1.70;;;;;;;8.42;66.21;99534.53;10503297;28;20040;-66
2023/11/24 02:58:32;;;;;;;8.48;2.97;;;;;;;8.51;65.94;99540.06;10503924;28;20048;-65
2023/11/24 03:03:34;;;;;;;16.58;2.65;;;;;;;8.57;65.69;99544.91;10520712;28;20146;-65
2023/11/24 03:08:36;;;;;;;11.32;2.67;;;;;;;8.50;65.94;99550.59;10499988;28;20055;-66
2023/11/24 03:13:38;;;;;;;4.97;1.88;;;;;;;8.16;64.48;99563.84;10520811;28;20056;-65
2023/11/24 03:18:40;;;;;;;7.80;1.85;;;;;;;7.84;63.02;99583.78;10520962;28;20504;-65
2023/11/24 03:23:42;;;;;;;4.00;1.13;;;;;;;7.83;63.60;99567.31;10501915;28;20531;-65
2023/11/24 03:28:46;;;;;;;3.65;1.15;;;;;;;7.65;61.59;99529.25;10520420;28;20070;-66
2023/11/24 03:33:48;;;;;;;7.20;2.15;;;;;;;7.64;63.29;99514.59;10499959;28;20678;-66
2023/11/24 03:38:50;;;;;;;4.15;1.55;;;;;;;7.57;63.53;99505.41;10520989;28;20622;-65
2023/11/24 03:43:52;;;;;;;3.47;1.20;;;;;;;7.47;63.35;99493.84;10519348;28;20621;-66
2023/11/24 03:48:54;;;;;;;3.22;1.20;;;;;;;7.43;63.84;99492.31;10519588;28;20048;-65
2023/11/24 03:53:56;;;;;;;2.55;1.35;;;;;;;7.29;63.71;99481.81;10517746;28;20557;-65
2023/11/24 03:58:58;;;;;;;2.22;1.15;;;;;;;7.16;63.84;99493.81;10519554;28;20062;-65
2023/11/24 04:04:00;;;;;;;1.67;0.88;;;;;;;7.09;63.89;99500.25;10517864;28;20052;-65
2023/11/24 04:09:04;;;;;;;4.97;1.42;;;;;;;7.11;64.17;99494.03;10501630;28;20039;-66
2023/11/24 04:14:07;;;;;;;4.95;1.45;;;;;;;7.24;63.87;99493.41;10517876;28;20058;-65
2023/11/24 04:19:11;;;;;;;4.07;1.27;;;;;;;7.24;63.53;99496.84;10518361;28;20412;-65
2023/11/24 04:24:13;;;;;;;3.30;1.40;;;;;;;7.31;63.78;99492.97;10516955;28;20040;-65
2023/11/24 04:29:15;;;;;;;6.32;1.88;;;;;;;7.27;63.64;99488.88;10499205;28;20044;-65
2023/11/24 04:34:17;;;;;;;2.22;1.00;;;;;;;7.27;63.72;99488.88;10515461;28;20128;-65
2023/11/24 04:39:20;;;;;;;4.90;1.35;;;;;;;7.33;63.47;99472.94;10517436;28;20131;-65
2023/11/24 04:44:23;;;;;;;4.68;1.95;;;;;;;7.26;63.28;99479.41;10517374;28;20108;-65
2023/11/24 04:49:25;;;;;;;7.32;1.55;;;;;;;7.28;63.63;99469.75;10517601;28;20047;-65
2023/11/24 04:54:27;;;;;;;2.92;1.35;;;;;;;7.39;63.39;99476.94;10517028;28;20047;-65
2023/11/24 04:59:31;;;;;;;2.58;1.02;;;;;;;7.46;63.18;99467.91;10517074;28;20051;-65
2023/11/24 05:04:36;;;;;;;7.68;1.83;;;;;;;7.22;63.63;99454.47;10516296;28;20419;-65
2023/11/24 05:09:38;;;;;;;5.65;1.70;;;;;;;7.10;63.63;99457.72;10516406;28;20079;-65
2023/11/24 05:14:40;;;;;;;2.38;1.35;;;;;;;7.19;63.49;99449.41;10497063;28;20052;-65
2023/11/24 05:19:42;;;;;;;5.03;1.35;;;;;;;7.21;63.49;99442.38;10515634;28;20058;-66
2023/11/24 05:24:44;;;;;;;4.55;1.83;;;;;;;7.32;63.15;99437.44;10516404;28;20151;-65
2023/11/24 05:29:46;;;;;;;6.55;2.08;;;;;;;7.42;63.30;99440.38;10496978;28;20078;-65
2023/11/24 05:34:48;;;;;;;5.28;2.65;;;;;;;7.36;63.28;99433.75;10514570;28;20048;-66
2023/11/24 05:39:51;;;;;;;8.57;3.17;;;;;;;7.35;63.25;99426.84;10515125;28;20048;-66
2023/11/24 05:44:53;;;;;;;3.38;1.52;;;;;;;7.23;63.49;99419.72;10495635;28;20414;-66
2023/11/24 05:49:55;;;;;;;3.50;1.67;;;;;;;7.10;63.50;99414.34;10515494;28;20051;-64
2023/11/24 05:54:58;;;;;;;5.93;1.25;;;;;;;7.09;62.92;99407.47;10514994;28;20052;-65
2023/11/24 06:00:01;;;;;;;3.72;1.40;;;;;;;7.18;63.25;99400.94;10516016;28;20105;-65
2023/11/24 06:05:12;;;;;;;3.72;1.42;;;;;;;7.15;63.49;99393.28;10513978;28;20039;-65
2023/11/24 06:10:16;;;;;;;5.65;2.47;;;;;;;7.04;63.86;99391.28;10514731;28;20136;-65
2023/11/24 06:15:18;;;;;;;3.05;1.48;;;;;;;7.05;63.65;99399.91;10515395;28;20055;-65
2023/11/24 06:20:20;;;;;;;3.60;1.40;;;;;;;6.94;63.65;99397.88;10514391;28;20055;-65
2023/11/24 06:25:22;;;;;;;7.75;1.58;;;;;;;7.02;63.71;99382.72;10515438;28;20044;-64
2023/11/24 06:30:24;;;;;;;3.28;1.50;;;;;;;7.02;63.42;99382.72;10513657;28;20514;-65
2023/11/24 06:35:26;;;;;;;9.68;1.95;;;;;;;6.90;63.04;99385.13;10496301;28;20127;-65
2023/11/24 06:40:28;;;;;;;3.67;1.38;;;;;;;6.89;62.95;99367.88;10495136;28;20242;-65
2023/11/24 06:45:30;;;;;;;9.43;1.48;;;;;;;6.93;62.43;99374.59;10516083;28;20117;-65
2023/11/24 06:50:33;;;;;;;2.97;1.40;;;;;;;6.90;62.13;99362.59;10521835;28;20460;-65
2023/11/24 06:55:35;;;;;;;4.20;1.30;;;;;;;6.76;61.91;99369.44;10521632;28;20131;-66
2023/11/24 07:00:36;;;;;;;2.05;1.02;;;;;;;6.70;61.88;99372.34;10520604;28;20056;-65
2023/11/24 07:05:39;;;;;;;2.38;1.17;;;;;;;6.76;61.72;99385.03;10522048;28;20043;-66
2023/11/24 07:10:41;;;;;;;5.07;1.70;;;;;;;6.91;61.29;99374.66;10520630;28;20140;-66
2023/11/24 07:15:43;;;;;;;4.57;1.30;;;;;;;6.99;61.33;99379.44;10521846;28;20480;-66
2023/11/24 07:20:45;;;;;;;6.78;1.95;;;;;;;6.99;61.25;99363.84;10519095;28;20518;-66
2023/11/24 07:25:51;;;;;;;6.22;2.25;;;;;;;6.82;60.84;99364.75;10520451;28;20056;-65
2023/11/24 07:30:53;;;;;;;7.93;1.50;;;;;;;6.83;61.06;99370.78;10519590;28;20135;-66
2023/11/24 07:35:55;;;;;;;4.82;1.33;;;;;;;6.90;61.36;99372.13;10520953;28;20071;-65
2023/11/24 07:40:57;;;;;;;4.13;1.10;;;;;;;7.13;60.70;99362.19;10518957;28;20043;-66
2023/11/24 07:45:59;;;;;;;3.50;1.60;;;;;;;7.27;60.52;99369.22;10519965;28;20127;-65
2023/11/24 07:51:01;;;;;;;4.70;1.40;;;;;;;7.33;60.42;99355.88;10518632;28;20076;-65
2023/11/24 07:56:05;;;;;;;5.45;1.02;;;;;;;7.23;60.00;99356.47;10517540;28;20048;-65
2023/11/24 08:01:07;;;;;;;2.35;0.80;;;;;;;7.37;60.23;99341.78;10519490;28;20063;-65
2023/11/24 08:06:09;;;;;;;6.90;1.65;;;;;;;7.30;60.41;99327.44;10518893;28;20051;-65
2023/11/24 08:11:12;;;;;;;7.45;1.80;;;;;;;7.38;60.31;99325.25;10519134;28;20078;-65
2023/11/24 08:16:14;;;;;;;3.65;1.30;;;;;;;7.25;60.73;99326.00;10517353;28;20159;-66
2023/11/24 08:21:16;;;;;;;2.95;1.10;;;;;;;7.16;61.12;99298.78;10519342;28;20040;-65
2023/11/24 08:26:18;;;;;;;2.65;1.10;;;;;;;7.28;60.98;99292.88;10518243;28;20066;-65
2023/11/24 08:31:21;;;;;;;2.47;0.90;;;;;;;7.33;61.12;99290.00;10518384;28;20086;-65
2023/11/24 08:36:25;;;;;;;3.60;0.95;;;;;;;7.21;61.31;99275.94;10517466;28;20040;-65
2023/11/24 08:41:27;;;;;;;1.25;0.77;;;;;;;7.08;62.03;99265.38;10517824;28;20109;-65
2023/11/24 08:46:42;;;;;;;6.13;1.48;;;;;;;6.94;62.18;99267.06;10517078;28;20055;-65
2023/11/24 08:51:44;;;;;;;1.60;0.95;;;;;;;6.94;61.96;99256.66;10518059;28;20048;-65
2023/11/24 08:56:46;;;;;;;3.78;1.35;;;;;;;6.86;62.05;99245.84;10516468;28;20549;-65
2023/11/24 09:01:49;;;;;;;2.92;1.27;;;;;;;7.34;61.33;99255.28;10516098;28;20046;-65
2023/11/24 09:06:51;;;;;;;1.60;1.00;;;;;;;7.42;61.11;99268.69;10516715;28;20127;-65
2023/11/24 09:11:53;;;;;;;3.78;1.50;;;;;;;7.20;61.75;99237.88;10516717;28;20059;-65
2023/11/24 09:16:59;;;;;;;1.55;1.05;;;;;;;6.98;61.70;99245.19;10513897;28;20142;-66
2023/11/24 09:22:03;;;;;;;2.70;0.90;;;;;;;7.28;61.73;99230.47;10515097;28;20101;-65
2023/11/24 09:27:06;;;;;;;1.05;0.70;;;;;;;7.26;61.99;99232.31;10498625;28;20051;-66
2023/11/24 09:32:08;;;;;;;2.40;0.98;;;;;;;7.01;62.53;99238.06;10486236;28;20044;-65
2023/11/24 09:37:10;;;;;;;2.95;0.98;;;;;;;6.77;63.44;99254.19;10512566;28;20040;-65
2023/11/24 09:42:14;;;;;;;1.73;0.77;;;;;;;6.37;63.87;99270.25;10510224;28;20046;-65
2023/11/24 09:47:22;;;;;;;0.70;0.70;;;;;;;6.38;63.40;99226.00;10492335;28;20158;-65
2023/11/24 09:52:27;;;;;;;0.25;0.25;;;;;;;6.41;63.10;99245.78;10509989;28;20048;-65
2023/11/24 09:57:29;;;;;;;0.40;0.40;;;;;;;6.35;62.64;99227.00;10510867;28;20051;-66
2023/11/24 10:02:31;;;;;;;1.92;0.60;;;;;;;6.42;62.97;99211.09;10491625;28;20119;-65
2023/11/24 10:07:34;;;;;;;0.68;0.50;;;;;;;6.71;63.03;99198.19;10510039;28;20590;-64
2023/11/24 10:12:37;;;;;;;1.25;0.50;;;;;;;6.92;62.74;99186.59;10490104;28;20040;-65
2023/11/24 10:17:39;;;;;;;0.70;0.57;;;;;;;6.78;61.74;99173.53;10510388;28;20097;-65
2023/11/24 10:22:41;;;;;;;1.20;0.90;;;;;;;6.59;62.30;99159.06;10516161;28;20032;-65
2023/11/24 10:27:43;;;;;;;0.60;0.60;;;;;;;6.60;61.96;99168.50;10518149;28;20182;-65
2023/11/24 10:32:51;;;;;;;3.97;1.67;;;;;;;7.00;61.21;99157.53;10497338;28;20101;-65
2023/11/24 10:37:55;;;;;;;1.55;1.02;;;;;;;7.05;61.38;99150.34;10511348;28;20040;-65
2023/11/24 10:42:57;;;;;;;1.35;1.00;;;;;;;7.41;61.05;99135.16;10518139;28;20059;-65
2023/11/24 10:48:05;;;;;;;1.08;0.90;;;;;;;7.42;59.58;99143.81;10518419;28;20044;-65
2023/11/24 10:53:24;;;;;;;2.22;1.00;;;;;;;7.36;59.97;99129.41;10516432;28;20051;-65
2023/11/24 10:58:26;;;;;;;7.63;1.27;;;;;;;7.15;59.13;99117.66;10517954;28;20051;-65
2023/11/24 11:03:34;;;;;;;2.58;0.93;;;;;;;6.92;60.20;99121.59;10482782;28;20035;-67
2023/11/24 11:08:46;;;;;;;1.98;0.75;;;;;;;6.61;59.54;99118.25;10497717;28;20040;-65
2023/11/24 11:13:51;;;;;;;1.90;1.13;;;;;;;6.72;60.46;99123.66;10512271;28;20062;-65
2023/11/24 11:18:54;;;;;;;1.45;1.10;;;;;;;6.98;59.22;99099.59;10517838;28;20052;-66
2023/11/24 11:23:56;;;;;;;1.50;0.82;;;;;;;7.08;59.09;99088.59;10515588;28;20377;-65
2023/11/24 11:28:58;;;;;;;3.38;1.40;;;;;;;7.42;58.42;99082.22;10486190;28;20044;-64
2023/11/24 11:34:12;;;;;;;3.85;1.30;;;;;;;7.45;57.13;99071.63;10505800;28;20518;-65
2023/11/24 11:39:18;;;;;;;2.75;0.90;;;;;;;7.90;59.08;99083.56;10511286;28;20067;-67
2023/11/24 11:44:39;;;;;;;1.35;1.15;;;;;;;7.61;59.29;99098.38;10510844;28;20048;-67
2023/11/24 11:49:42;;;;;;;2.23;1.30;;;;;;;7.19;60.58;99122.59;10487050;28;20161;-67
2023/11/24 11:54:47;;;;;;;0.57;0.40;;;;;;;6.28;61.65;99118.38;10512671;28;20043;-67
2023/11/24 11:59:50;;;;;;;1.10;0.57;;;;;;;5.77;62.26;99127.19;10508763;28;20044;-67
2023/11/24 12:04:52;;;;;;;0.77;0.40;;;;;;;5.44;62.84;99115.97;10512116;28;20123;-67
2023/11/24 12:09:54;;;;;;;0.20;0.20;;;;;;;5.17;63.30;99122.56;10514663;28;21009;-67
2023/11/24 12:14:56;;;;;;;0.95;0.63;;;;;;;5.17;63.24;99114.78;10507246;28;20058;-67
2023/11/24 12:19:59;;;;;;;0.35;0.35;;;;;;;5.16;63.84;99105.34;10505674;28;20047;-67
2023/11/24 12:25:02;;;;;;;0.68;0.68;;;;;;;5.57;62.67;99085.91;10469656;28;20068;-67
2023/11/24 12:30:07;;;;;;;0.45;0.45;;;;;;;5.35;62.84;99078.38;10501405;28;20054;-67
2023/11/24 12:35:09;;;;;;;0.70;0.70;;;;;;;5.36;62.86;99080.06;10501634;28;20032;-67
2023/11/24 12:40:13;;;;;;;0.40;0.40;;;;;;;5.35;63.13;99055.03;10512325;28;20127;-67
2023/11/24 12:45:16;;;;;;;0.90;0.80;;;;;;;5.54;62.87;99060.09;10505985;28;20068;-67
2023/11/24 12:50:20;;;;;;;0.70;0.70;;;;;;;5.52;62.98;99067.13;10513478;28;20044;-67
2023/11/24 12:55:22;;;;;;;0.60;0.57;;;;;;;5.69;62.86;99051.53;10478223;28;20571;-67
2023/11/24 13:00:27;;;;;;;1.20;1.10;;;;;;;5.70;62.77;99029.84;10497344;28;20549;-67
2023/11/24 13:05:29;;;;;;;1.15;1.05;;;;;;;5.58;61.89;99040.88;10504144;28;20076;-67
2023/11/24 13:10:33;;;;;;;0.57;0.57;;;;;;;5.61;62.14;99025.16;10508107;28;20543;-66
2023/11/24 13:15:35;;;;;;;0.65;0.63;;;;;;;5.68;62.02;99021.28;10510614;28;20056;-67
2023/11/24 13:20:38;;;;;;;1.52;0.95;;;;;;;5.91;61.72;99020.03;10490144;28;20576;-67
2023/11/24 13:25:41;;;;;;;1.20;0.73;;;;;;;6.10;60.85;99034.50;10509254;28;20048;-67
2023/11/24 13:30:43;;;;;;;1.52;0.93;;;;;;;6.53;60.59;99032.94;10508048;28;20326;-67
2023/11/24 13:35:45;;;;;;;4.60;0.80;;;;;;;6.62;60.24;99041.97;10469977;28;20048;-67
2023/11/24 13:40:47;;;;;;;1.88;0.80;;;;;;;6.71;60.37;99036.25;10509995;28;20042;-67
2023/11/24 13:45:51;;;;;;;2.13;1.13;;;;;;;6.45;59.82;99050.72;10510633;28;20121;-67
2023/11/24 13:50:56;;;;;;;1.30;1.00;;;;;;;6.68;57.99;99039.00;10509346;28;20052;-67
2023/11/24 13:55:59;;;;;;;0.57;0.57;;;;;;;7.08;58.18;99038.38;10508815;28;20120;-67
2023/11/24 14:01:03;;;;;;;0.98;0.75;;;;;;;7.18;58.07;99052.50;10492483;28;20441;-67
2023/11/24 14:06:06;;;;;;;1.25;0.88;;;;;;;7.02;57.56;99034.34;10492042;28;20048;-67
2023/11/24 14:11:08;;;;;;;0.57;0.57;;;;;;;6.47;57.81;99037.66;10508077;28;21252;-66
2023/11/24 14:16:10;;;;;;;1.27;1.02;;;;;;;6.08;57.80;99040.72;10509947;28;20043;-67
2023/11/24 14:21:12;;;;;;;1.75;0.65;;;;;;;5.70;57.54;99032.44;10509510;28;20522;-67
2023/11/24 14:26:14;;;;;;;2.40;1.17;;;;;;;5.59;57.67;99027.00;10509004;28;20583;-66
2023/11/24 14:31:16;;;;;;;0.93;0.63;;;;;;;5.52;57.52;99030.81;10505285;28;20512;-67
2023/11/24 14:36:18;;;;;;;2.42;0.88;;;;;;;5.49;58.15;99007.66;10506979;28;20553;-66
2023/11/24 14:41:21;;;;;;;1.60;0.98;;;;;;;5.42;57.76;99004.56;10509617;28;20054;-67
2023/11/24 14:46:28;;;;;;;4.18;0.75;;;;;;;5.39;57.62;99017.66;10508591;28;20557;-66
2023/11/24 14:51:35;;;;;;;2.38;0.90;;;;;;;5.32;58.34;99013.75;10509292;28;20067;-66
2023/11/24 14:56:40;;;;;;;1.50;0.85;;;;;;;5.22;58.70;99022.09;10473391;28;20502;-66
2023/11/24 15:01:42;;;;;;;1.38;0.88;;;;;;;5.19;58.16;99023.06;10490286;28;20143;-66
2023/11/24 15:06:49;;;;;;;1.45;0.85;;;;;;;5.20;58.50;99019.56;10511599;28;20084;-66
2023/11/24 15:11:52;;;;;;;1.85;1.35;;;;;;;5.18;58.82;99016.22;10514710;28;20480;-67
2023/11/24 15:16:57;;;;;;;5.15;1.60;;;;;;;5.04;58.99;99023.03;10516024;28;20066;-66
2023/11/24 15:22:05;;;;;;;4.63;1.20;;;;;;;5.12;59.25;99031.25;10513470;28;20415;-66
2023/11/24 15:27:08;;;;;;;3.33;1.73;;;;;;;5.02;59.21;99036.09;10512961;28;20036;-67
2023/11/24 15:32:18;;;;;;;2.75;0.88;;;;;;;4.97;59.18;99043.25;10513751;28;20042;-67
2023/11/24 15:37:20;;;;;;;6.85;1.98;;;;;;;4.99;59.13;99044.00;10496676;28;20052;-66
2023/11/24 15:42:23;;;;;;;2.75;2.03;;;;;;;5.15;59.07;99044.88;10495561;28;20664;-67
2023/11/24 15:47:27;;;;;;;2.67;1.27;;;;;;;4.99;59.43;99044.00;10506708;28;20048;-64
2023/11/24 15:52:29;;;;;;;4.30;1.65;;;;;;;5.07;60.00;99043.59;10511565;28;20072;-64
2023/11/24 15:57:32;;;;;;;3.05;1.30;;;;;;;4.67;60.90;99050.81;10519167;28;20051;-64
2023/11/24 16:02:34;;;;;;;1.63;1.10;;;;;;;4.81;60.50;99067.41;10514071;28;20133;-64
2023/11/24 16:07:37;;;;;;;4.45;1.00;;;;;;;4.67;62.00;99097.44;10518045;28;20056;-64
2023/11/24 16:12:43;;;;;;;0.43;0.43;;;;;;;4.74;61.94;99060.88;10517438;28;20051;-64
2023/11/24 16:17:47;;;;;;;0.75;0.75;;;;;;;4.52;62.96;99076.59;10517063;28;20047;-64
2023/11/24 16:22:50;;;;;;;2.50;0.60;;;;;;;4.02;63.91;99093.72;10517377;28;20044;-65
2023/11/24 16:27:52;;;;;;;0.82;0.60;;;;;;;3.94;63.85;99094.06;10517700;28;20044;-65
2023/11/24 16:32:54;;;;;;;1.65;0.63;;;;;;;3.73;63.90;99095.84;10494025;28;20126;-64
2023/11/24 16:37:57;;;;;;;1.17;0.80;;;;;;;3.59;64.28;99092.22;10515934;28;20040;-64
2023/11/24 16:43:00;;;;;;;0.73;0.52;;;;;;;3.48;64.51;99084.94;10491372;28;20123;-64
2023/11/24 16:48:04;;;;;;;0.70;0.50;;;;;;;3.42;64.41;99087.78;10512398;28;20126;-64
2023/11/24 16:53:06;;;;;;;0.65;0.65;;;;;;;3.43;64.44;99083.47;10516186;28;20044;-64
2023/11/24 16:58:08;;;;;;;0.43;0.43;;;;;;;3.55;64.82;99101.84;10510849;28;20487;-64
2023/11/24 17:03:12;;;;;;;21.45;1.77;;;;;;;3.73;64.61;99095.84;10514411;28;20056;-64
2023/11/24 17:08:14;;;;;;;0.70;0.70;;;;;;;3.78;64.68;99103.41;10511217;28;20040;-64
2023/11/24 17:13:17;;;;;;;1.55;1.00;;;;;;;3.84;64.74;99092.81;10516659;28;20052;-65
2023/11/24 17:18:19;;;;;;;2.85;1.30;;;;;;;3.71;64.92;99096.81;10492700;28;20055;-64
2023/11/24 17:23:21;;;;;;;1.83;1.10;;;;;;;3.73;64.85;99106.19;10516487;28;20458;-64
2023/11/24 17:28:23;;;;;;;3.97;1.40;;;;;;;3.79;65.10;99123.19;10515219;28;20071;-64
2023/11/24 17:33:25;;;;;;;2.80;1.35;;;;;;;3.85;65.15;99159.16;10514625;28;20129;-64
2023/11/24 17:38:28;;;;;;;3.17;1.05;;;;;;;3.56;65.36;99165.56;10497652;28;20066;-64
2023/11/24 17:43:30;;;;;;;0.82;0.60;;;;;;;3.26;65.33;99155.69;10515697;28;20051;-64
2023/11/24 17:48:33;;;;;;;0.68;0.47;;;;;;;2.95;65.19;99122.56;10514297;28;20130;-64
2023/11/24 17:53:35;;;;;;;0.50;0.50;;;;;;;2.92;65.62;99118.38;10511016;28;20052;-64
2023/11/24 17:58:38;;;;;;;0.82;0.73;;;;;;;2.82;65.56;99101.59;10494195;28;20055;-64
2023/11/24 18:03:40;;;;;;;1.20;0.40;;;;;;;2.81;64.80;99079.25;10513591;28;20500;-64
2023/11/24 18:08:42;;;;;;;2.05;0.70;;;;;;;2.85;64.82;99069.63;10513030;28;20051;-64
2023/11/24 18:13:44;;;;;;;0.73;0.50;;;;;;;2.75;64.41;99050.25;10513894;28;20055;-63
2023/11/24 18:18:46;;;;;;;0.68;0.35;;;;;;;2.52;65.35;99060.72;10513466;28;20117;-64
2023/11/24 18:23:49;;;;;;;0.85;0.82;;;;;;;2.63;65.38;99079.16;10513253;28;20097;-64
2023/11/24 18:28:52;;;;;;;1.83;0.43;;;;;;;2.68;65.49;99065.16;10503195;28;20047;-64
2023/11/24 18:33:55;;;;;;;0.45;0.45;;;;;;;2.46;65.30;99077.28;10506671;28;20079;-65
2023/11/24 18:38:57;;;;;;;1.08;0.73;;;;;;;2.41;65.99;99063.72;10510316;28;20219;-64
2023/11/24 18:43:59;;;;;;;2.67;1.00;;;;;;;2.41;66.46;99065.47;10517791;28;20839;-64
2023/11/24 18:49:01;;;;;;;0.70;0.70;;;;;;;2.43;66.74;99084.31;10488674;28;20137;-64
2023/11/24 18:54:04;;;;;;;1.05;0.82;;;;;;;2.55;66.59;99076.91;10520594;28;20040;-65
2023/11/24 18:59:06;;;;;;;1.20;0.95;;;;;;;2.63;66.73;99069.69;10520112;28;20056;-64
2023/11/24 19:04:08;;;;;;;1.73;1.42;;;;;;;2.61;66.51;99063.75;10519413;28;20044;-64
2023/11/24 19:09:15;;;;;;;1.38;0.90;;;;;;;2.63;66.36;99058.53;10520059;28;20144;-64
2023/11/24 19:14:17;;;;;;;2.83;1.10;;;;;;;2.55;66.63;99053.69;10512985;28;20052;-65
2023/11/24 19:19:20;;;;;;;5.55;1.80;;;;;;;2.59;66.67;99050.06;10521764;28;20521;-64
2023/11/24 19:24:23;;;;;;;1.45;1.08;;;;;;;2.54;66.73;99035.69;10516846;28;20044;-64
2023/11/24 19:29:25;;;;;;;3.58;1.83;;;;;;;2.58;66.60;99043.22;10501781;28;20059;-64
2023/11/24 19:34:27;;;;;;;6.15;1.25;;;;;;;2.54;67.02;99021.03;10517941;28;20048;-64
2023/11/24 19:39:30;;;;;;;3.08;1.77;;;;;;;2.52;67.07;99022.81;10520041;28;20048;-64
2023/11/24 19:44:35;;;;;;;4.50;1.08;;;;;;;2.57;67.43;99014.91;10519047;28;20127;-64
2023/11/24 19:49:38;;;;;;;2.35;1.30;;;;;;;2.73;66.89;99015.94;10520036;28;20136;-64
2023/11/24 19:54:40;;;;;;;7.22;1.48;;;;;;;2.80;66.64;99012.19;10516894;28;20048;-64
2023/11/24 19:59:42;;;;;;;1.92;1.27;;;;;;;2.98;66.59;99012.25;10517982;28;20051;-64
2023/11/24 20:04:44;;;;;;;2.38;1.20;;;;;;;3.14;66.32;98988.28;10516213;28;20130;-63
2023/11/24 20:09:47;;;;;;;2.35;1.30;;;;;;;3.12;66.15;99009.03;10500149;28;20072;-64
2023/11/24 20:14:51;;;;;;;2.53;1.30;;;;;;;3.35;65.83;98989.94;10517706;28;20510;-63
2023/11/24 20:19:53;;;;;;;1.77;1.10;;;;;;;3.20;65.28;98995.78;10518416;28;20649;-64
2023/11/24 20:24:55;;;;;;;4.40;1.60;;;;;;;3.31;66.15;99019.41;10517711;28;20051;-63
2023/11/24 20:29:57;;;;;;;2.20;1.30;;;;;;;3.31;66.19;98996.16;10516069;28;20051;-64
2023/11/24 20:34:59;;;;;;;1.55;1.20;;;;;;;3.17;66.50;98983.00;10514409;28;20131;-65
2023/11/24 20:40:02;;;;;;;1.70;1.20;;;;;;;3.23;66.36;98980.16;10517134;28;20048;-64
2023/11/24 20:45:04;;;;;;;1.98;1.30;;;;;;;3.26;66.44;98990.31;10514058;28;20142;-63
2023/11/24 20:50:07;;;;;;;2.00;1.30;;;;;;;3.03;67.22;98963.78;10490176;28;20044;-64
2023/11/24 20:55:10;;;;;;;1.85;1.15;;;;;;;3.23;66.86;98985.31;10516322;28;20404;-64
2023/11/24 21:00:12;;;;;;;3.42;1.35;;;;;;;3.28;67.01;99002.28;10515014;28;20043;-63
2023/11/24 21:05:14;;;;;;;3.28;1.10;;;;;;;3.17;67.12;99011.44;10515797;28;20042;-63
2023/11/24 21:10:16;;;;;;;1.52;1.08;;;;;;;3.14;67.06;99027.06;10515076;28;20052;-63
2023/11/24 21:15:18;;;;;;;6.22;1.10;;;;;;;2.93;67.62;99027.09;10515861;28;20496;-64
2023/11/24 21:20:22;;;;;;;4.40;1.30;;;;;;;3.11;66.92;99022.84;10515763;28;20051;-64
2023/11/24 21:25:24;;;;;;;4.68;1.27;;;;;;;3.02;66.73;99018.94;10496687;28;20444;-63
2023/11/24 21:30:28;;;;;;;2.13;1.20;;;;;;;2.95;66.72;99014.94;10494743;28;20052;-63
2023/11/24 21:35:31;;;;;;;0.98;0.88;;;;;;;3.03;66.41;99028.34;10514302;28;20131;-64
2023/11/24 21:40:32;;;;;;;0.82;0.82;;;;;;;3.02;66.48;99051.69;10481153;28;20044;-63
2023/11/24 21:45:35;;;;;;;2.08;1.20;;;;;;;2.93;65.85;99062.38;10494396;28;20507;-64
2023/11/24 21:50:38;;;;;;;1.23;0.90;;;;;;;3.13;66.02;99070.13;10498590;28;20055;-63
2023/11/24 21:55:40;;;;;;;0.95;0.80;;;;;;;3.05;66.01;99079.94;10496515;28;20058;-63
2023/11/24 22:00:42;;;;;;;2.58;0.93;;;;;;;3.11;65.67;99074.50;10497511;28;20040;-63
2023/11/24 22:05:47;;;;;;;2.15;1.45;;;;;;;3.16;65.89;99085.50;10515193;28;20086;-64
2023/11/24 22:10:52;;;;;;;0.60;0.60;;;;;;;3.12;65.71;99101.19;10513926;28;20051;-63
2023/11/24 22:15:54;;;;;;;3.35;1.00;;;;;;;3.16;65.50;99092.41;10444687;28;20136;-63
2023/11/24 22:20:57;;;;;;;1.83;1.13;;;;;;;3.21;65.42;99098.22;10439784;28;20040;-64
2023/11/24 22:25:59;;;;;;;3.47;1.15;;;;;;;3.03;65.17;99097.25;10440341;28;20095;-63
2023/11/24 22:31:01;;;;;;;4.07;1.42;;;;;;;2.92;65.55;99123.56;10440905;28;20559;-64
2023/11/24 22:36:03;;;;;;;1.80;0.90;;;;;;;2.78;65.84;99138.78;10438598;28;20123;-64
2023/11/24 22:41:05;;;;;;;2.22;1.00;;;;;;;2.70;65.86;99145.97;10438825;28;20045;-64
2023/11/24 22:46:07;;;;;;;4.75;1.20;;;;;;;2.68;65.73;99150.34;10439175;28;20576;-64
2023/11/24 22:51:16;;;;;;;1.08;0.80;;;;;;;2.63;66.06;99165.19;10429094;28;20049;-64
2023/11/24 22:56:23;;;;;;;0.80;0.80;;;;;;;2.59;65.79;99168.81;10437054;28;20037;-64
2023/11/24 23:01:26;;;;;;;2.03;1.48;;;;;;;2.61;65.67;99177.31;10437912;28;20046;-64
2023/11/24 23:06:28;;;;;;;1.90;0.90;;;;;;;2.59;65.35;99179.13;10437460;28;20040;-64
2023/11/24 23:11:33;;;;;;;2.00;1.02;;;;;;;2.52;65.58;99179.44;10435921;28;20041;-64
2023/11/24 23:16:35;;;;;;;3.03;0.93;;;;;;;2.55;65.56;99198.22;10503767;28;20101;-64
2023/11/24 23:21:37;;;;;;;1.05;0.98;;;;;;;2.47;65.68;99192.50;10521192;28;20055;-63
2023/11/24 23:26:39;;;;;;;2.70;1.13;;;;;;;2.42;65.82;99222.81;10501896;28;20043;-64
2023/11/24 23:31:41;;;;;;;1.45;0.93;;;;;;;2.45;65.73;99216.69;10521073;28;20060;-64
2023/11/24 23:36:43;;;;;;;2.83;1.58;;;;;;;2.63;65.79;99229.72;10519886;28;20040;-64
2023/11/24 23:41:45;;;;;;;5.55;1.35;;;;;;;2.71;65.43;99248.34;10519616;28;20047;-64
2023/11/24 23:46:47;;;;;;;1.80;1.20;;;;;;;2.84;65.24;99249.56;10520404;28;20494;-64